Time;durP1;ratioP1;P1;durP2;ratioP2;P2;SDS_P1;SDS_P2;PMS_P1;PMS_P2;Temp;Humidity;BMP_temperature;BMP_pressure;BME280_temperature;BME280_humidity;BME280_pressure;Samples;Min_cycle;Max_cycle;Signal;HPM_P1;HPM_P2
2023/02/06 00:00:22;;;;;;;;;;;;;;;-1.64;84.11;103566.73;107265;1254;125517;-85
2023/02/06 00:03:10;;;;;;;;;;;;;;;-1.64;83.89;103573.88;107572;1254;75931;-86
2023/02/06 00:05:36;;;;;;;;;;;;;;;-1.65;83.89;103573.21;107522;1254;125237;-85
2023/02/06 00:08:03;;;;;;;;;;;;;;;-1.67;83.74;103569.09;107438;1254;61176;-85
2023/02/06 00:10:29;;;;;;;;;;;;;;;-1.68;83.76;103570.60;107299;1254;124986;-85
2023/02/06 00:12:55;;;;;;;;;;;;;;;-1.68;83.71;103565.45;107352;1256;59781;-85
2023/02/06 00:15:22;;;;;;;;;;;;;;;-1.68;83.71;103567.58;107253;1254;61335;-86
2023/02/06 00:17:49;;;;;;;;;;;;;;;-1.69;83.53;103567.25;107511;1257;124924;-86
2023/02/06 00:20:20;;;;;;;;;;;;;;;-1.69;83.67;103568.70;107457;1259;61253;-86
2023/02/06 00:22:46;;;;;;;;;;;;;;;-1.69;83.73;103573.18;107722;1257;125212;-85
2023/02/06 00:25:13;;;;;;;;;;;;;;;-1.69;83.60;103574.70;107703;1254;61219;-85
2023/02/06 00:27:39;;;;;;;;;;;;;;;-1.70;83.54;103573.05;107843;1256;61252;-85
2023/02/06 00:30:06;;;;;;;;;;;;;;;-1.70;83.56;103572.01;108231;1254;125007;-84
2023/02/06 00:32:33;;;;;;;;;;;;;;;-1.71;83.53;103570.52;108114;1254;59755;-84
2023/02/06 00:35:00;;;;;;;;;;;;;;;-1.72;83.45;103574.33;107526;1258;128376;-84
2023/02/06 00:37:26;;;;;;;;;;;;;;;-1.72;83.42;103575.70;107590;1255;61344;-84
2023/02/06 00:39:52;;;;;;;;;;;;;;;-1.72;83.34;103573.30;107311;1256;61497;-84
2023/02/06 00:42:18;;;;;;;;;;;;;;;-1.69;83.49;103572.55;107409;1254;125163;-85
2023/02/06 00:44:45;;;;;;;;;;;;;;;-1.68;83.47;103573.56;107488;1254;61375;-84
2023/02/06 00:47:11;;;;;;;;;;;;;;;-1.67;83.56;103572.48;107563;1260;124796;-85
2023/02/06 00:49:37;;;;;;;;;;;;;;;-1.66;83.40;103575.21;107436;1254;61054;-86
2023/02/06 00:52:05;;;;;;;;;;;;;;;-1.66;83.38;103576.62;107456;1256;125324;-85
2023/02/06 00:54:34;;;;;;;;;;;;;;;-1.65;83.44;103581.55;107658;1254;61233;-84
2023/02/06 00:57:00;;;;;;;;;;;;;;;-1.64;83.36;103583.70;107421;1254;71060;-84
2023/02/06 00:59:27;;;;;;;;;;;;;;;-1.62;83.44;103581.56;107283;1259;125430;-84
2023/02/06 01:01:53;;;;;;;;;;;;;;;-1.61;83.39;103581.30;107349;1254;61157;-84
2023/02/06 01:04:19;;;;;;;;;;;;;;;-1.60;83.47;103580.59;107698;1256;125654;-84
2023/02/06 01:06:45;;;;;;;;;;;;;;;-1.59;83.29;103578.94;107623;1254;61248;-84
2023/02/06 01:09:15;;;;;;;;;;;;;;;-1.58;83.44;103569.08;107710;1256;60042;-84
2023/02/06 01:11:41;;;;;;;;;;;;;;;-1.57;83.38;103571.64;108750;1255;125391;-84
2023/02/06 01:14:08;;;;;;;;;;;;;;;-1.54;83.55;103565.94;107704;1255;59302;-84
2023/02/06 01:16:34;;;;;;;;;;;;;;;-1.50;83.51;103560.86;107790;1256;124924;-84
2023/02/06 01:19:00;;;;;;;;;;;;;;;-1.49;83.47;103560.98;108366;1254;61295;-85
2023/02/06 01:21:26;;;;;;;;;;;;;;;-1.49;83.42;103562.45;107655;1256;61340;-84
2023/02/06 01:23:53;;;;;;;;;;;;;;;-1.48;83.30;103559.77;107502;1254;125231;-84
2023/02/06 01:26:24;;;;;;;;;;;;;;;-1.47;83.39;103556.48;107760;1254;61246;-84
2023/02/06 01:28:50;;;;;;;;;;;;;;;-1.46;83.24;103558.44;107517;1257;124870;-84
2023/02/06 01:31:19;;;;;;;;;;;;;;;-1.43;83.33;103561.27;107801;1259;61274;-84
2023/02/06 01:33:45;;;;;;;;;;;;;;;-1.39;83.39;103556.46;109030;1254;71411;-84
2023/02/06 01:36:11;;;;;;;;;;;;;;;-1.34;83.50;103551.73;108019;1255;124985;-85
2023/02/06 01:38:39;;;;;;;;;;;;;;;-1.32;83.31;103552.27;107891;1254;62059;-85
2023/02/06 01:41:06;;;;;;;;;;;;;;;-1.32;83.24;103550.58;107503;1257;124880;-84
2023/02/06 01:43:33;;;;;;;;;;;;;;;-1.32;83.23;103547.92;107425;1254;65934;-84
2023/02/06 01:45:59;;;;;;;;;;;;;;;-1.31;83.18;103549.23;107377;1256;124916;-85
2023/02/06 01:48:29;;;;;;;;;;;;;;;-1.29;82.99;103550.83;108278;1259;61231;-86
2023/02/06 01:50:55;;;;;;;;;;;;;;;-1.27;83.11;103550.68;108497;1255;61381;-84
2023/02/06 01:53:22;;;;;;;;;;;;;;;-1.27;82.99;103548.54;107235;1254;125118;-85
2023/02/06 01:55:48;;;;;;;;;;;;;;;-1.26;82.95;103540.52;107622;1257;61170;-84
2023/02/06 01:58:18;;;;;;;;;;;;;;;-1.25;82.97;103533.30;107657;1256;125014;-84
2023/02/06 02:00:44;;;;;;;;;;;;;;;-1.23;83.09;103532.42;107613;1256;61379;-84
2023/02/06 02:03:11;;;;;;;;;;;;;;;-1.22;82.75;103533.60;107703;1261;60107;-84
2023/02/06 02:05:37;;;;;;;;;;;;;;;-1.22;82.93;103524.45;107355;1254;125465;-84
2023/02/06 02:08:24;;;;;;;;;;;;;;;-1.20;82.92;103518.95;107461;1256;60288;-85
2023/02/06 02:10:50;;;;;;;;;;;;;;;-1.17;82.65;103514.67;107526;1254;124825;-84
2023/02/06 02:13:16;;;;;;;;;;;;;;;-1.17;82.77;103509.05;107564;1258;61419;-83
2023/02/06 02:15:43;;;;;;;;;;;;;;;-1.17;82.77;103500.23;107781;1254;59994;-84
2023/02/06 02:18:17;;;;;;;;;;;;;;;-1.19;82.69;103500.40;107905;1256;125183;-83
2023/02/06 02:20:50;;;;;;;;;;;;;;;-1.19;82.61;103499.08;107752;1259;67082;-84
2023/02/06 02:23:22;;;;;;;;;;;;;;;-1.20;82.35;103495.16;107387;1254;125552;-85
2023/02/06 02:26:07;;;;;;;;;;;;;;;-1.20;82.73;103494.18;107816;1257;61288;-84
2023/02/06 02:29:08;;;;;;;;;;;;;;;-1.15;82.80;103494.37;107798;1254;125026;-84
2023/02/06 02:31:43;;;;;;;;;;;;;;;-1.15;82.68;103490.75;108507;1262;74487;-84
2023/02/06 02:34:28;;;;;;;;;;;;;;;-1.16;82.56;103485.48;107439;1263;125003;-84
2023/02/06 02:36:59;;;;;;;;;;;;;;;-1.17;82.47;103476.73;107133;1262;71603;-83
2023/02/06 02:39:36;;;;;;;;;;;;;;;-1.21;82.32;103473.20;106992;1262;59912;-85
2023/02/06 02:42:08;;;;;;;;;;;;;;;-1.25;82.26;103460.99;108138;1262;124093;-85
2023/02/06 02:44:53;;;;;;;;;;;;;;;-1.30;82.20;103457.18;107118;1262;75126;-86
2023/02/06 02:47:20;;;;;;;;;;;;;;;-1.36;81.97;103456.83;107185;1262;124838;-84
2023/02/06 02:49:47;;;;;;;;;;;;;;;-1.41;81.94;103460.20;107338;1262;72987;-85
2023/02/06 02:52:13;;;;;;;;;;;;;;;-1.45;81.94;103463.52;106820;1262;124700;-85
2023/02/06 02:54:39;;;;;;;;;;;;;;;-1.49;82.12;103469.27;106867;1261;60169;-85
2023/02/06 02:57:10;;;;;;;;;;;;;;;-1.55;81.92;103466.17;106966;1262;61203;-86
2023/02/06 03:00:08;;;;;;;;;;;;;;;-1.61;82.04;103467.77;106980;1261;125562;-85
2023/02/06 03:02:36;;;;;;;;;;;;;;;-1.68;81.75;103474.58;107061;1263;71464;-85
2023/02/06 03:05:07;;;;;;;;;;;;;;;-1.74;81.65;103471.52;107719;1265;125457;-83
2023/02/06 03:07:46;;;;;;;;;;;;;;;-1.80;81.71;103468.58;107387;1260;61277;-83
2023/02/06 03:10:30;;;;;;;;;;;;;;;-1.85;81.64;103463.10;107490;1256;125388;-84
2023/02/06 03:13:05;;;;;;;;;;;;;;;-1.89;81.68;103459.16;107870;1258;68465;-83
2023/02/06 03:15:35;;;;;;;;;;;;;;;-1.95;81.59;103450.25;107613;1259;71642;-84
2023/02/06 03:18:05;;;;;;;;;;;;;;;-1.98;81.43;103450.06;107274;1260;125331;-83
2023/02/06 03:20:31;;;;;;;;;;;;;;;-1.99;81.57;103447.34;107531;1254;61260;-83
2023/02/06 03:23:01;;;;;;;;;;;;;;;-2.00;81.73;103450.17;107225;1254;125294;-84
2023/02/06 03:25:29;;;;;;;;;;;;;;;-2.01;81.61;103454.17;107558;1256;65675;-83
2023/02/06 03:27:56;;;;;;;;;;;;;;;-2.03;81.38;103457.86;107579;1254;71661;-84
2023/02/06 03:30:22;;;;;;;;;;;;;;;-2.06;81.42;103455.20;107521;1254;125112;-83
2023/02/06 03:32:49;;;;;;;;;;;;;;;-2.05;81.47;103452.98;108068;1257;59563;-82
2023/02/06 03:35:16;;;;;;;;;;;;;;;-2.05;81.48;103454.02;107610;1254;124687;-83
2023/02/06 03:37:42;;;;;;;;;;;;;;;-2.06;81.43;103457.50;107581;1255;66242;-83
2023/02/06 03:40:09;;;;;;;;;;;;;;;-2.06;81.43;103459.07;107419;1254;125420;-84
2023/02/06 03:42:37;;;;;;;;;;;;;;;-2.08;81.27;103460.95;107575;1255;59836;-83
2023/02/06 03:45:14;;;;;;;;;;;;;;;-2.09;81.16;103463.94;107707;1257;61177;-85
2023/02/06 03:47:40;;;;;;;;;;;;;;;-2.08;81.28;103465.59;107742;1254;125147;-85
2023/02/06 03:50:06;;;;;;;;;;;;;;;-2.05;81.26;103464.38;107811;1254;59831;-85
2023/02/06 03:52:37;;;;;;;;;;;;;;;-2.03;81.29;103464.95;107733;1257;127842;-84
2023/02/06 03:55:04;;;;;;;;;;;;;;;-2.00;81.36;103468.64;107657;1256;59767;-85
2023/02/06 03:57:30;;;;;;;;;;;;;;;-1.95;81.29;103466.92;107575;1257;59805;-82
2023/02/06 03:59:57;;;;;;;;;;;;;;;-1.90;81.25;103470.00;107510;1257;124894;-85
2023/02/06 04:02:23;;;;;;;;;;;;;;;-1.85;81.27;103472.80;107615;1254;61229;-85
2023/02/06 04:04:49;;;;;;;;;;;;;;;-1.79;81.33;103478.32;107495;1257;125094;-85
2023/02/06 04:07:21;;;;;;;;;;;;;;;-1.74;81.37;103473.41;107456;1257;61251;-84
2023/02/06 04:09:47;;;;;;;;;;;;;;;-1.67;81.22;103475.34;107359;1257;61226;-84
2023/02/06 04:12:14;;;;;;;;;;;;;;;-1.62;81.23;103475.79;107486;1258;124363;-85
2023/02/06 04:14:41;;;;;;;;;;;;;;;-1.60;81.24;103475.61;107875;1256;67564;-84
2023/02/06 04:17:07;;;;;;;;;;;;;;;-1.58;81.25;103476.88;107658;1259;124774;-84
2023/02/06 04:19:33;;;;;;;;;;;;;;;-1.56;81.03;103471.73;107430;1258;61200;-84
2023/02/06 04:21:59;;;;;;;;;;;;;;;-1.54;81.01;103471.21;107348;1256;124826;-85
2023/02/06 04:24:27;;;;;;;;;;;;;;;-1.52;81.06;103471.76;107517;1254;59630;-85
2023/02/06 04:26:53;;;;;;;;;;;;;;;-1.51;81.01;103470.36;107522;1255;65996;-84
2023/02/06 04:29:20;;;;;;;;;;;;;;;-1.49;81.04;103469.21;107879;1256;124132;-85
2023/02/06 04:31:46;;;;;;;;;;;;;;;-1.47;81.13;103462.73;107790;1257;59521;-85
2023/02/06 04:34:13;;;;;;;;;;;;;;;-1.46;80.98;103461.89;107294;1256;125680;-86
2023/02/06 04:36:39;;;;;;;;;;;;;;;-1.44;80.89;103459.85;107545;1259;59360;-86
2023/02/06 04:39:06;;;;;;;;;;;;;;;-1.42;81.00;103458.89;107663;1258;61280;-86
2023/02/06 04:41:33;;;;;;;;;;;;;;;-1.40;80.91;103453.27;107298;1256;125306;-84
2023/02/06 04:44:01;;;;;;;;;;;;;;;-1.38;80.96;103454.73;107513;1254;61276;-84
2023/02/06 04:46:27;;;;;;;;;;;;;;;-1.36;80.83;103458.58;107304;1261;125437;-84
2023/02/06 04:48:54;;;;;;;;;;;;;;;-1.33;81.03;103459.21;107597;1257;61184;-83
2023/02/06 04:51:20;;;;;;;;;;;;;;;-1.29;80.75;103453.29;107953;1258;61720;-84
2023/02/06 04:53:46;;;;;;;;;;;;;;;-1.25;80.95;103453.42;107586;1257;125207;-85
2023/02/06 04:56:12;;;;;;;;;;;;;;;-1.22;80.83;103461.52;107527;1257;61255;-84
2023/02/06 04:58:39;;;;;;;;;;;;;;;-1.19;80.87;103457.46;107549;1257;124962;-84
2023/02/06 05:01:05;;;;;;;;;;;;;;;-1.15;80.78;103453.90;107529;1257;61251;-84
2023/02/06 05:03:31;;;;;;;;;;;;;;;-1.12;80.75;103452.70;107713;1254;61465;-84
2023/02/06 05:05:59;;;;;;;;;;;;;;;-1.10;80.72;103452.54;107259;1261;125607;-86
2023/02/06 05:08:25;;;;;;;;;;;;;;;-1.09;80.54;103453.61;107319;1257;60383;-88
2023/02/06 05:10:52;;;;;;;;;;;;;;;-1.07;80.43;103452.60;107135;1256;125063;-87
2023/02/06 05:13:18;;;;;;;;;;;;;;;-1.06;80.45;103452.38;107378;1257;61375;-86
2023/02/06 05:15:46;;;;;;;;;;;;;;;-1.06;80.43;103449.96;107377;1256;61435;-88
2023/02/06 05:18:14;;;;;;;;;;;;;;;-1.03;80.56;103447.16;107498;1256;125591;-86
2023/02/06 05:20:41;;;;;;;;;;;;;;;-1.02;80.41;103451.76;107403;1262;60636;-86
2023/02/06 05:23:08;;;;;;;;;;;;;;;-1.02;80.60;103453.73;107588;1254;125392;-91
2023/02/06 05:25:35;;;;;;;;;;;;;;;-0.98;80.54;103455.85;107274;1256;73147;-89
2023/02/06 05:28:06;;;;;;;;;;;;;;;-0.96;80.66;103454.69;107210;1254;125532;-89
2023/02/06 05:30:33;;;;;;;;;;;;;;;-0.94;80.62;103454.00;107025;1257;73148;-87
2023/02/06 05:33:01;;;;;;;;;;;;;;;-0.93;80.57;103461.06;107259;1256;61259;-87
2023/02/06 05:35:29;;;;;;;;;;;;;;;-0.92;80.55;103463.58;107239;1254;125276;-88
2023/02/06 05:37:57;;;;;;;;;;;;;;;-0.91;80.78;103464.45;107322;1255;73446;-84
2023/02/06 05:40:23;;;;;;;;;;;;;;;-0.89;80.56;103464.69;107380;1255;125262;-88
2023/02/06 05:42:49;;;;;;;;;;;;;;;-0.88;80.53;103467.86;107335;1256;61180;-89
2023/02/06 05:45:17;;;;;;;;;;;;;;;-0.89;80.49;103473.08;107260;1256;59396;-88
2023/02/06 05:47:43;;;;;;;;;;;;;;;-0.89;80.58;103472.70;107127;1256;125095;-86
2023/02/06 05:50:10;;;;;;;;;;;;;;;-0.90;80.53;103479.46;107329;1257;61291;-85
2023/02/06 05:52:36;;;;;;;;;;;;;;;-0.91;80.64;103479.80;107695;1256;125167;-85
2023/02/06 05:55:04;;;;;;;;;;;;;;;-0.90;80.52;103481.62;107196;1257;63129;-85
2023/02/06 05:57:32;;;;;;;;;;;;;;;-0.90;80.71;103480.91;107253;1259;61393;-89
2023/02/06 05:59:58;;;;;;;;;;;;;;;-0.89;80.64;103484.00;107332;1255;124826;-88
2023/02/06 06:02:24;;;;;;;;;;;;;;;-0.87;80.60;103484.33;107299;1257;61151;-88
2023/02/06 06:04:51;;;;;;;;;;;;;;;-0.88;80.61;103481.63;107260;1257;124477;-86
2023/02/06 06:07:17;;;;;;;;;;;;;;;-0.86;80.57;103483.04;107478;1256;61344;-85
2023/02/06 06:09:44;;;;;;;;;;;;;;;-0.86;80.72;103484.30;107545;1257;61227;-90
2023/02/06 06:12:15;;;;;;;;;;;;;;;-0.86;80.85;103489.14;107537;1259;125363;-90
2023/02/06 06:14:41;;;;;;;;;;;;;;;-0.85;80.74;103493.02;107366;1256;73306;-89
2023/02/06 06:17:08;;;;;;;;;;;;;;;-0.84;80.78;103495.58;107066;1261;124983;-87
2023/02/06 06:19:34;;;;;;;;;;;;;;;-0.80;80.86;103496.33;107120;1256;61361;-87
2023/02/06 06:22:00;;;;;;;;;;;;;;;-0.75;80.96;103501.18;107018;1254;125055;-86
2023/02/06 06:24:28;;;;;;;;;;;;;;;-0.74;81.01;103503.27;107471;1254;59725;-88
2023/02/06 06:26:55;;;;;;;;;;;;;;;-0.71;80.90;103507.25;107617;1258;73423;-84
2023/02/06 06:29:21;;;;;;;;;;;;;;;-0.68;81.14;103506.17;107263;1262;124823;-85
2023/02/06 06:31:49;;;;;;;;;;;;;;;-0.68;80.96;103506.72;107324;1254;61442;-85
2023/02/06 06:34:15;;;;;;;;;;;;;;;-0.67;80.90;103508.86;107050;1257;125439;-86
2023/02/06 06:40:19;;;;;;;;;;;;;;;-0.59;81.04;103518.60;107353;1254;125316;-90
2023/02/06 06:42:46;;;;;;;;;;;;;;;-0.56;80.99;103516.96;107587;1260;61231;-87
2023/02/06 06:45:12;;;;;;;;;;;;;;;-0.54;80.99;103520.54;107349;1255;60178;-88
2023/02/06 06:47:39;;;;;;;;;;;;;;;-0.49;81.14;103527.30;106971;1262;125576;-87
2023/02/06 06:50:06;;;;;;;;;;;;;;;-0.48;81.05;103524.34;107361;1259;61151;-86
2023/02/06 06:52:32;;;;;;;;;;;;;;;-0.46;81.14;103527.46;108384;1257;124859;-88
2023/02/06 06:54:59;;;;;;;;;;;;;;;-0.42;81.17;103532.92;107536;1256;59630;-89
2023/02/06 06:57:29;;;;;;;;;;;;;;;-0.40;81.05;103534.52;107440;1257;59760;-86
2023/02/06 06:59:55;;;;;;;;;;;;;;;-0.38;81.12;103535.27;107410;1255;124869;-85
2023/02/06 07:02:54;;;;;;;;;;;;;;;-0.37;81.08;103538.69;107490;1257;61379;-84
2023/02/06 07:05:21;;;;;;;;;;;;;;;-0.33;81.10;103545.80;107216;1255;125395;-86
2023/02/06 07:07:53;;;;;;;;;;;;;;;-0.34;81.11;103546.23;107626;1257;65684;-86
2023/02/06 07:10:20;;;;;;;;;;;;;;;-0.35;81.02;103549.30;107320;1254;125004;-87
2023/02/06 07:12:52;;;;;;;;;;;;;;;-0.32;81.20;103551.93;107383;1259;61218;-88
2023/02/06 07:15:19;;;;;;;;;;;;;;;-0.31;81.08;103546.66;107275;1257;63502;-85
2023/02/06 07:17:45;;;;;;;;;;;;;;;-0.30;81.13;103550.40;107016;1257;124292;-88
2023/02/06 07:20:11;;;;;;;;;;;;;;;-0.29;81.30;103549.77;107225;1258;59357;-89
2023/02/06 07:22:46;;;;;;;;;;;;;;;-0.30;81.24;103545.30;107118;1255;125679;-88
2023/02/06 07:25:12;;;;;;;;;;;;;;;-0.31;81.34;103547.48;107477;1254;61503;-92
2023/02/06 07:27:38;;;;;;;;;;;;;;;-0.35;81.19;103546.88;107397;1255;61240;-93
2023/02/06 07:30:05;;;;;;;;;;;;;;;-0.40;81.27;103543.36;107246;1253;124847;-91
2023/02/06 07:32:35;;;;;;;;;;;;;;;-0.42;81.43;103544.90;107348;1256;67257;-92
2023/02/06 07:35:01;;;;;;;;;;;;;;;-0.47;81.58;103549.65;107256;1262;124853;-92
2023/02/06 07:37:28;;;;;;;;;;;;;;;-0.48;81.80;103547.33;107262;1256;60939;-92
2023/02/06 07:40:26;;;;;;;;;;;;;;;-0.44;81.91;103552.18;107497;1257;59859;-90
2023/02/06 07:42:53;;;;;;;;;;;;;;;-0.42;82.03;103555.88;107384;1254;76091;-91
2023/02/06 07:45:20;;;;;;;;;;;;;;;-0.37;81.99;103556.91;107112;1262;66939;-92
2023/02/06 07:47:50;;;;;;;;;;;;;;;-0.32;82.12;103555.92;107312;1257;124769;-92
2023/02/06 07:50:54;;;;;;;;;;;;;;;-0.24;82.63;103552.42;107381;1257;61350;-92
2023/02/06 07:53:22;;;;;;;;;;;;;;;-0.16;82.36;103551.56;107141;1256;125030;-91
2023/02/06 07:55:48;;;;;;;;;;;;;;;-0.10;82.30;103549.45;107021;1257;73378;-92
2023/02/06 07:58:14;;;;;;;;;;;;;;;-0.03;82.55;103549.90;107072;1254;124905;-91
2023/02/06 08:00:46;;;;;;;;;;;;;;;0.03;82.30;103550.19;107207;1262;60384;-88
2023/02/06 08:03:13;;;;;;;;;;;;;;;0.08;82.41;103548.38;107269;1257;61404;-92
2023/02/06 08:05:39;;;;;;;;;;;;;;;0.13;82.18;103546.63;107273;1256;124897;-91
2023/02/06 08:08:38;;;;;;;;;;;;;;;0.22;82.33;103550.08;107340;1257;61291;-92
2023/02/06 08:11:05;;;;;;;;;;;;;;;0.28;82.02;103553.27;107069;1254;124560;-91
2023/02/06 08:13:32;;;;;;;;;;;;;;;0.33;82.22;103551.55;107126;1257;72715;-91
2023/02/06 08:16:03;;;;;;;;;;;;;;;0.40;82.18;103555.02;107375;1254;61193;-91
2023/02/06 08:18:33;;;;;;;;;;;;;;;0.46;82.14;103555.86;107232;1255;61197;-92
2023/02/06 08:21:06;;;;;;;;;;;;;;;0.51;82.13;103552.52;107173;1255;74807;-91
2023/02/06 08:23:35;;;;;;;;;;;;;;;0.56;81.89;103549.21;107190;1256;124897;-93
2023/02/06 08:26:06;;;;;;;;;;;;;;;0.57;81.68;103548.65;107422;1257;72509;-93
2023/02/06 08:28:34;;;;;;;;;;;;;;;0.58;81.63;103547.96;107522;1259;124932;-93
2023/02/06 08:31:01;;;;;;;;;;;;;;;0.61;81.49;103547.88;107476;1254;59967;-92
2023/02/06 08:33:31;;;;;;;;;;;;;;;0.63;81.41;103546.33;107257;1257;74947;-91
2023/02/06 08:36:00;;;;;;;;;;;;;;;0.64;81.30;103551.87;107098;1262;124010;-93
2023/02/06 08:38:27;;;;;;;;;;;;;;;0.66;81.12;103556.16;107241;1254;73146;-93
2023/02/06 08:40:54;;;;;;;;;;;;;;;0.63;80.82;103555.66;107314;1257;124602;-93
2023/02/06 08:43:21;;;;;;;;;;;;;;;0.65;80.92;103554.48;107279;1256;61218;-91
2023/02/06 08:45:51;;;;;;;;;;;;;;;0.72;80.86;103556.38;107245;1255;75616;-92
2023/02/06 08:48:17;;;;;;;;;;;;;;;0.84;81.02;103557.27;107151;1259;124933;-90
2023/02/06 08:50:44;;;;;;;;;;;;;;;0.96;81.03;103553.91;107290;1254;73336;-93
2023/02/06 08:53:11;;;;;;;;;;;;;;;1.06;80.81;103562.14;107371;1257;125428;-92
2023/02/06 08:55:38;;;;;;;;;;;;;;;1.16;80.73;103558.00;107393;1257;61270;-92
2023/02/06 08:58:37;;;;;;;;;;;;;;;1.25;80.63;103560.84;107257;1258;72646;-92
2023/02/06 09:01:12;;;;;;;;;;;;;;;1.34;80.26;103565.17;107309;1255;65881;-93
2023/02/06 09:03:40;;;;;;;;;;;;;;;1.44;80.37;103567.42;107140;1260;71033;-93
2023/02/06 09:06:39;;;;;;;;;;;;;;;1.57;80.29;103566.20;107325;1257;124759;-94
2023/02/06 09:09:06;;;;;;;;;;;;;;;1.78;80.05;103564.08;107327;1256;61099;-88
2023/02/06 09:11:39;;;;;;;;;;;;;;;1.93;79.84;103563.65;107082;1262;124943;-91
2023/02/06 09:14:12;;;;;;;;;;;;;;;2.09;79.82;103567.66;107366;1255;64866;-90
2023/02/06 09:16:39;;;;;;;;;;;;;;;2.23;79.53;103568.30;107207;1255;124538;-91
2023/02/06 09:19:06;;;;;;;;;;;;;;;2.33;79.27;103572.64;107184;1254;61276;-90
2023/02/06 09:21:36;;;;;;;;;;;;;;;2.42;79.02;103571.81;107465;1255;61237;-90
2023/02/06 09:24:05;;;;;;;;;;;;;;;2.45;78.69;103570.27;107121;1262;124490;-87
2023/02/06 09:26:42;;;;;;;;;;;;;;;2.53;78.74;103562.70;107077;1254;67090;-91
2023/02/06 09:29:11;;;;;;;;;;;;;;;2.68;78.79;103553.98;106974;1262;124779;-89
2023/02/06 09:31:39;;;;;;;;;;;;;;;2.79;78.46;103552.02;107195;1262;61129;-89
2023/02/06 09:34:06;;;;;;;;;;;;;;;2.86;78.29;103551.26;107051;1262;59937;-87
2023/02/06 09:36:35;;;;;;;;;;;;;;;2.88;77.81;103553.20;107179;1254;124420;-92
2023/02/06 09:39:07;;;;;;;;;;;;;;;2.90;77.48;103559.69;107347;1260;65896;-91
2023/02/06 09:41:36;;;;;;;;;;;;;;;2.87;77.20;103566.45;107235;1254;124152;-81
2023/02/06 09:44:06;;;;;;;;;;;;;;;2.83;77.18;103559.52;107818;1260;59569;-80
2023/02/06 09:46:33;;;;;;;;;;;;;;;2.86;77.39;103555.61;108026;1258;124023;-79
2023/02/06 09:49:01;;;;;;;;;;;;;;;2.95;77.44;103557.91;108659;1260;318414;-80
2023/02/06 09:51:31;;;;;;;;;;;;;;;3.02;77.41;103562.14;108812;1255;65770;-81
2023/02/06 09:54:09;;;;;;;;;;;;;;;3.08;77.34;103568.59;108723;1255;126683;-81
2023/02/06 09:56:42;;;;;;;;;;;;;;;3.11;77.05;103572.89;108831;1254;59268;-81
2023/02/06 09:59:12;;;;;;;;;;;;;;;3.12;77.15;103569.23;108880;1256;124480;-81
2023/02/06 10:01:39;;;;;;;;;;;;;;;3.19;77.27;103572.14;108858;1259;73248;-81
2023/02/06 10:04:25;;;;;;;;;;;;;;;3.31;77.38;103571.80;108989;1255;59371;-80
2023/02/06 10:07:16;;;;;;;;;;;;;;;3.44;77.20;103579.36;108841;1256;72577;-81
2023/02/06 10:09:45;;;;;;;;;;;;;;;3.44;76.73;103583.92;108957;1254;59113;-81
2023/02/06 10:12:29;;;;;;;;;;;;;;;3.41;76.75;103584.17;107554;1256;124081;-80
2023/02/06 10:15:05;;;;;;;;;;;;;;;3.41;76.79;103587.11;107684;1254;73298;-81
2023/02/06 10:17:55;;;;;;;;;;;;;;;3.40;76.70;103595.42;108114;1260;124718;-81
2023/02/06 10:20:27;;;;;;;;;;;;;;;3.36;76.57;103599.30;108866;1257;72709;-81
2023/02/06 10:23:00;;;;;;;;;;;;;;;3.36;76.56;103602.83;108741;1257;124292;-83
2023/02/06 10:25:30;;;;;;;;;;;;;;;3.37;76.58;103602.18;108579;1260;60574;-84
2023/02/06 10:27:58;;;;;;;;;;;;;;;3.39;76.58;103591.68;108008;1253;75691;-82
2023/02/06 10:31:03;;;;;;;;;;;;;;;3.44;76.75;103595.96;107841;1261;125820;-83
2023/02/06 10:33:32;;;;;;;;;;;;;;;3.58;76.79;103599.55;107103;1265;71304;-83
2023/02/06 10:36:25;;;;;;;;;;;;;;;3.61;76.45;103600.64;108401;1263;124551;-83
2023/02/06 10:38:57;;;;;;;;;;;;;;;3.56;76.30;103599.89;107890;1263;59650;-83
2023/02/06 10:41:39;;;;;;;;;;;;;;;3.47;76.20;103594.38;107592;1264;124850;-82
2023/02/06 10:44:13;;;;;;;;;;;;;;;3.34;76.02;103586.97;107978;1264;65652;-82
2023/02/06 10:46:44;;;;;;;;;;;;;;;3.20;75.93;103595.44;106952;1266;124129;-82
2023/02/06 10:49:30;;;;;;;;;;;;;;;3.02;75.86;103600.42;106890;1268;61190;-79
2023/02/06 10:52:11;;;;;;;;;;;;;;;2.87;76.11;103601.73;106795;1266;61286;-81
2023/02/06 10:54:50;;;;;;;;;;;;;;;2.77;76.04;103602.38;106934;1268;123923;-81
2023/02/06 10:57:50;;;;;;;;;;;;;;;2.61;76.00;103600.06;107252;1264;65011;-81
2023/02/06 11:00:29;;;;;;;;;;;;;;;2.47;76.35;103595.40;107333;1264;124213;-83
2023/02/06 11:02:59;;;;;;;;;;;;;;;2.38;76.36;103600.85;107383;1264;59636;-82
2023/02/06 11:05:28;;;;;;;;;;;;;;;2.33;76.59;103599.30;107854;1254;124203;-81
2023/02/06 11:08:20;;;;;;;;;;;;;;;2.37;76.85;103602.44;109048;1254;75182;-81
2023/02/06 11:11:23;;;;;;;;;;;;;;;2.44;77.23;103600.92;108055;1255;124453;-82
2023/02/06 11:14:18;;;;;;;;;;;;;;;2.54;77.22;103603.13;108074;1255;71531;-81
2023/02/06 11:16:52;;;;;;;;;;;;;;;2.63;77.35;103612.59;107766;1254;125222;-83
2023/02/06 11:19:40;;;;;;;;;;;;;;;2.71;77.28;103612.38;107362;1254;61266;-82
2023/02/06 11:22:40;;;;;;;;;;;;;;;2.82;77.40;103611.56;107614;1258;75056;-91
2023/02/06 11:25:29;;;;;;;;;;;;;;;2.95;77.45;103607.35;106736;1265;67278;-82
2023/02/06 11:28:14;;;;;;;;;;;;;;;3.18;77.51;103608.19;108404;1262;73310;-84
2023/02/06 11:30:53;;;;;;;;;;;;;;;3.44;77.67;103607.13;107459;1264;124823;-83
2023/02/06 11:33:23;;;;;;;;;;;;;;;3.70;77.65;103600.48;106960;1266;59702;-82
2023/02/06 11:36:04;;;;;;;;;;;;;;;3.95;77.52;103601.50;107577;1265;125134;-82
2023/02/06 11:38:45;;;;;;;;;;;;;;;4.15;77.25;103597.04;107989;1265;66120;-83
2023/02/06 11:41:18;;;;;;;;;;;;;;;4.29;76.98;103588.08;108170;1266;125541;-82
2023/02/06 11:43:48;;;;;;;;;;;;;;;4.43;76.86;103583.21;108445;1264;59411;-82
2023/02/06 11:46:37;;;;;;;;;;;;;;;4.54;76.64;103583.71;108217;1263;124234;-85
2023/02/06 11:49:29;;;;;;;;;;;;;;;4.71;76.59;103576.93;107247;1264;73295;-81
2023/02/06 11:52:11;;;;;;;;;;;;;;;4.80;75.95;103576.35;107154;1267;65785;-85
2023/02/06 11:54:44;;;;;;;;;;;;;;;4.81;75.70;103581.02;106788;1264;123841;-81
2023/02/06 11:57:24;;;;;;;;;;;;;;;4.63;74.84;103576.38;107630;1264;61583;-82
2023/02/06 12:00:04;;;;;;;;;;;;;;;4.46;74.86;103572.85;106741;1269;124141;-82
2023/02/06 12:02:52;;;;;;;;;;;;;;;4.37;75.02;103575.98;107332;1260;73394;-81
2023/02/06 12:05:53;;;;;;;;;;;;;;;4.39;75.23;103575.01;107538;1254;123823;-90
2023/02/06 12:08:22;;;;;;;;;;;;;;;4.57;75.63;103573.23;107285;1258;71099;-91
2023/02/06 12:11:23;;;;;;;;;;;;;;;4.80;75.57;103572.89;106918;1256;124137;-91
2023/02/06 12:14:03;;;;;;;;;;;;;;;5.08;75.80;103572.17;107173;1257;61346;-93
2023/02/06 12:16:45;;;;;;;;;;;;;;;5.22;75.12;103572.95;107218;1260;124786;-92
2023/02/06 12:19:20;;;;;;;;;;;;;;;5.19;74.77;103569.06;107127;1261;61231;-90
2023/02/06 12:21:47;;;;;;;;;;;;;;;5.13;74.41;103566.25;107345;1254;73337;-91
2023/02/06 12:24:25;;;;;;;;;;;;;;;5.06;74.15;103562.41;107238;1257;124867;-90
2023/02/06 12:26:57;;;;;;;;;;;;;;;5.03;74.29;103557.14;107493;1254;61164;-89
2023/02/06 12:29:31;;;;;;;;;;;;;;;5.03;74.33;103556.65;107336;1256;124323;-89
2023/02/06 12:32:03;;;;;;;;;;;;;;;5.11;74.44;103553.98;107430;1260;65726;-89
2023/02/06 12:34:42;;;;;;;;;;;;;;;5.08;74.14;103554.96;107369;1254;124131;-89
2023/02/06 12:37:15;;;;;;;;;;;;;;;4.94;73.90;103555.23;107097;1256;61304;-89
2023/02/06 12:39:42;;;;;;;;;;;;;;;4.78;73.89;103558.34;107167;1254;61283;-90
2023/02/06 12:42:09;;;;;;;;;;;;;;;4.66;74.02;103558.88;107271;1257;125300;-88
2023/02/06 12:44:40;;;;;;;;;;;;;;;4.57;74.20;103551.41;107350;1254;59719;-88
2023/02/06 12:47:06;;;;;;;;;;;;;;;4.56;74.37;103551.28;107069;1254;124116;-90
2023/02/06 12:49:51;;;;;;;;;;;;;;;4.47;74.24;103550.55;107148;1254;61238;-90